sensor_id;sensor_type;location;lat;lon;timestamp;temperature;humidity
60313;DHT22;46158;52.850;6.970;2023-03-11T00:00:18;12.80;69.70
60313;DHT22;46158;52.850;6.970;2023-03-11T00:02:46;12.80;69.60
60313;DHT22;46158;52.850;6.970;2023-03-11T00:05:12;12.80;69.60
60313;DHT22;46158;52.850;6.970;2023-03-11T00:07:40;12.80;69.50
60313;DHT22;46158;52.850;6.970;2023-03-11T00:10:06;12.80;69.50
60313;DHT22;46158;52.850;6.970;2023-03-11T00:12:31;12.80;69.40
60313;DHT22;46158;52.850;6.970;2023-03-11T00:14:57;12.80;69.40
60313;DHT22;46158;52.850;6.970;2023-03-11T00:17:22;12.80;69.40
60313;DHT22;46158;52.850;6.970;2023-03-11T00:19:48;12.80;69.30
60313;DHT22;46158;52.850;6.970;2023-03-11T00:22:14;12.70;69.20
60313;DHT22;46158;52.850;6.970;2023-03-11T00:24:39;12.80;69.30
60313;DHT22;46158;52.850;6.970;2023-03-11T00:27:05;12.80;69.20
60313;DHT22;46158;52.850;6.970;2023-03-11T00:29:31;12.70;69.10
60313;DHT22;46158;52.850;6.970;2023-03-11T00:31:56;12.70;69.10
60313;DHT22;46158;52.850;6.970;2023-03-11T00:34:22;12.70;69.10
60313;DHT22;46158;52.850;6.970;2023-03-11T00:36:47;12.70;69.10
60313;DHT22;46158;52.850;6.970;2023-03-11T00:39:13;12.70;69.10
60313;DHT22;46158;52.850;6.970;2023-03-11T00:41:39;12.70;69.00
60313;DHT22;46158;52.850;6.970;2023-03-11T00:44:05;12.70;69.10
60313;DHT22;46158;52.850;6.970;2023-03-11T00:46:30;12.70;69.00
60313;DHT22;46158;52.850;6.970;2023-03-11T00:48:56;12.70;68.90
60313;DHT22;46158;52.850;6.970;2023-03-11T00:51:22;12.70;68.90
60313;DHT22;46158;52.850;6.970;2023-03-11T00:53:47;12.60;68.80
60313;DHT22;46158;52.850;6.970;2023-03-11T00:56:13;12.70;68.80
60313;DHT22;46158;52.850;6.970;2023-03-11T00:58:39;12.60;68.80
60313;DHT22;46158;52.850;6.970;2023-03-11T01:01:06;12.70;68.80
60313;DHT22;46158;52.850;6.970;2023-03-11T01:03:32;12.60;68.70
60313;DHT22;46158;52.850;6.970;2023-03-11T01:05:58;12.60;68.80
60313;DHT22;46158;52.850;6.970;2023-03-11T01:08:23;12.60;68.70
60313;DHT22;46158;52.850;6.970;2023-03-11T01:10:51;12.60;68.70
60313;DHT22;46158;52.850;6.970;2023-03-11T01:13:17;12.60;68.80
60313;DHT22;46158;52.850;6.970;2023-03-11T01:15:43;12.60;68.70
60313;DHT22;46158;52.850;6.970;2023-03-11T01:18:08;12.60;68.70
60313;DHT22;46158;52.850;6.970;2023-03-11T01:20:34;12.60;68.70
60313;DHT22;46158;52.850;6.970;2023-03-11T01:23:00;12.60;68.70
60313;DHT22;46158;52.850;6.970;2023-03-11T01:25:26;12.60;68.70
60313;DHT22;46158;52.850;6.970;2023-03-11T01:27:51;12.60;68.60
60313;DHT22;46158;52.850;6.970;2023-03-11T01:30:24;12.60;68.60
60313;DHT22;46158;52.850;6.970;2023-03-11T01:32:54;12.60;68.60
60313;DHT22;46158;52.850;6.970;2023-03-11T01:35:21;12.60;68.60
60313;DHT22;46158;52.850;6.970;2023-03-11T01:37:47;12.60;68.60
60313;DHT22;46158;52.850;6.970;2023-03-11T01:40:16;12.60;68.60
60313;DHT22;46158;52.850;6.970;2023-03-11T01:42:43;12.60;68.50
60313;DHT22;46158;52.850;6.970;2023-03-11T01:45:25;12.60;68.50
60313;DHT22;46158;52.850;6.970;2023-03-11T01:47:51;12.60;68.50
60313;DHT22;46158;52.850;6.970;2023-03-11T01:50:16;12.50;68.40
60313;DHT22;46158;52.850;6.970;2023-03-11T01:52:42;12.60;68.40
60313;DHT22;46158;52.850;6.970;2023-03-11T01:55:08;12.50;68.40
60313;DHT22;46158;52.850;6.970;2023-03-11T01:57:35;12.50;68.50
60313;DHT22;46158;52.850;6.970;2023-03-11T02:00:03;12.50;68.40
60313;DHT22;46158;52.850;6.970;2023-03-11T02:02:33;12.50;68.40
60313;DHT22;46158;52.850;6.970;2023-03-11T02:05:00;12.50;68.40
60313;DHT22;46158;52.850;6.970;2023-03-11T02:07:26;12.50;68.40
60313;DHT22;46158;52.850;6.970;2023-03-11T02:09:52;12.50;68.40
60313;DHT22;46158;52.850;6.970;2023-03-11T02:12:17;12.50;68.40
60313;DHT22;46158;52.850;6.970;2023-03-11T02:14:44;12.50;68.30
60313;DHT22;46158;52.850;6.970;2023-03-11T02:17:11;12.50;68.30
60313;DHT22;46158;52.850;6.970;2023-03-11T02:19:47;12.50;68.30
60313;DHT22;46158;52.850;6.970;2023-03-11T02:22:15;12.50;68.30
60313;DHT22;46158;52.850;6.970;2023-03-11T02:27:21;12.50;68.30
60313;DHT22;46158;52.850;6.970;2023-03-11T02:29:48;12.50;68.30
60313;DHT22;46158;52.850;6.970;2023-03-11T02:32:16;12.50;68.30
60313;DHT22;46158;52.850;6.970;2023-03-11T02:34:42;12.50;68.30
60313;DHT22;46158;52.850;6.970;2023-03-11T02:37:12;12.60;68.30
60313;DHT22;46158;52.850;6.970;2023-03-11T02:39:40;12.50;68.30
60313;DHT22;46158;52.850;6.970;2023-03-11T02:42:07;12.50;68.30
60313;DHT22;46158;52.850;6.970;2023-03-11T02:44:34;12.50;68.20
60313;DHT22;46158;52.850;6.970;2023-03-11T02:47:00;12.50;68.30
60313;DHT22;46158;52.850;6.970;2023-03-11T02:49:26;12.50;68.20
60313;DHT22;46158;52.850;6.970;2023-03-11T02:51:52;12.50;68.20
60313;DHT22;46158;52.850;6.970;2023-03-11T02:54:17;12.50;68.20
60313;DHT22;46158;52.850;6.970;2023-03-11T02:56:43;12.50;68.20
60313;DHT22;46158;52.850;6.970;2023-03-11T02:59:08;12.50;68.20
60313;DHT22;46158;52.850;6.970;2023-03-11T03:01:34;12.50;68.20
60313;DHT22;46158;52.850;6.970;2023-03-11T03:04:00;12.50;68.20
60313;DHT22;46158;52.850;6.970;2023-03-11T03:06:25;12.50;68.20
60313;DHT22;46158;52.850;6.970;2023-03-11T03:08:53;12.50;68.20
60313;DHT22;46158;52.850;6.970;2023-03-11T03:11:19;12.50;68.20
60313;DHT22;46158;52.850;6.970;2023-03-11T03:13:44;12.50;68.20
60313;DHT22;46158;52.850;6.970;2023-03-11T03:16:10;12.50;68.20
60313;DHT22;46158;52.850;6.970;2023-03-11T03:18:35;12.50;68.20
60313;DHT22;46158;52.850;6.970;2023-03-11T03:21:01;12.50;68.20
60313;DHT22;46158;52.850;6.970;2023-03-11T03:23:27;12.50;68.20
60313;DHT22;46158;52.850;6.970;2023-03-11T03:25:52;12.50;68.20
60313;DHT22;46158;52.850;6.970;2023-03-11T03:28:18;12.50;68.20
60313;DHT22;46158;52.850;6.970;2023-03-11T03:30:43;12.50;68.20
60313;DHT22;46158;52.850;6.970;2023-03-11T03:33:09;12.50;68.30
60313;DHT22;46158;52.850;6.970;2023-03-11T03:35:35;12.50;68.20
60313;DHT22;46158;52.850;6.970;2023-03-11T03:38:00;12.50;68.30
60313;DHT22;46158;52.850;6.970;2023-03-11T03:40:26;12.50;68.30
60313;DHT22;46158;52.850;6.970;2023-03-11T03:42:52;12.50;68.30
60313;DHT22;46158;52.850;6.970;2023-03-11T03:45:17;12.50;68.20
60313;DHT22;46158;52.850;6.970;2023-03-11T03:47:43;12.50;68.30
60313;DHT22;46158;52.850;6.970;2023-03-11T03:50:09;12.50;68.30
60313;DHT22;46158;52.850;6.970;2023-03-11T03:52:35;12.50;68.30
60313;DHT22;46158;52.850;6.970;2023-03-11T03:55:01;12.50;68.20
60313;DHT22;46158;52.850;6.970;2023-03-11T03:57:27;12.50;68.30
60313;DHT22;46158;52.850;6.970;2023-03-11T03:59:53;12.50;68.20
60313;DHT22;46158;52.850;6.970;2023-03-11T04:02:19;12.50;68.20
60313;DHT22;46158;52.850;6.970;2023-03-11T04:04:44;12.50;68.20
60313;DHT22;46158;52.850;6.970;2023-03-11T04:07:10;12.50;68.30
60313;DHT22;46158;52.850;6.970;2023-03-11T04:09:37;12.50;68.30
60313;DHT22;46158;52.850;6.970;2023-03-11T04:12:03;12.50;68.90
60313;DHT22;46158;52.850;6.970;2023-03-11T04:14:29;12.50;68.30
60313;DHT22;46158;52.850;6.970;2023-03-11T04:16:55;12.40;68.20
60313;DHT22;46158;52.850;6.970;2023-03-11T04:19:21;12.50;68.20
60313;DHT22;46158;52.850;6.970;2023-03-11T04:21:47;12.40;68.20
60313;DHT22;46158;52.850;6.970;2023-03-11T04:24:13;12.40;68.20
60313;DHT22;46158;52.850;6.970;2023-03-11T04:26:38;12.40;68.20
60313;DHT22;46158;52.850;6.970;2023-03-11T04:29:04;12.40;68.20
60313;DHT22;46158;52.850;6.970;2023-03-11T04:31:29;12.50;68.30
60313;DHT22;46158;52.850;6.970;2023-03-11T04:33:55;12.40;68.20
60313;DHT22;46158;52.850;6.970;2023-03-11T04:36:21;12.40;68.30
60313;DHT22;46158;52.850;6.970;2023-03-11T04:38:46;12.40;68.20
60313;DHT22;46158;52.850;6.970;2023-03-11T04:41:12;12.40;68.20
60313;DHT22;46158;52.850;6.970;2023-03-11T04:43:37;12.50;68.30
60313;DHT22;46158;52.850;6.970;2023-03-11T04:46:03;12.50;68.30
60313;DHT22;46158;52.850;6.970;2023-03-11T04:48:29;12.40;68.20
60313;DHT22;46158;52.850;6.970;2023-03-11T04:50:54;12.50;68.30
60313;DHT22;46158;52.850;6.970;2023-03-11T04:53:20;12.50;68.20
60313;DHT22;46158;52.850;6.970;2023-03-11T04:55:45;12.50;68.30
60313;DHT22;46158;52.850;6.970;2023-03-11T04:58:12;12.50;68.30
60313;DHT22;46158;52.850;6.970;2023-03-11T05:00:38;12.50;68.20
60313;DHT22;46158;52.850;6.970;2023-03-11T05:03:03;12.50;68.20
60313;DHT22;46158;52.850;6.970;2023-03-11T05:05:29;12.50;68.10
60313;DHT22;46158;52.850;6.970;2023-03-11T05:07:54;12.60;68.20
60313;DHT22;46158;52.850;6.970;2023-03-11T05:10:20;12.60;68.10
60313;DHT22;46158;52.850;6.970;2023-03-11T05:12:48;12.60;68.00
60313;DHT22;46158;52.850;6.970;2023-03-11T05:15:14;12.60;68.00
60313;DHT22;46158;52.850;6.970;2023-03-11T05:17:39;12.70;68.00
60313;DHT22;46158;52.850;6.970;2023-03-11T05:20:05;12.60;67.90
60313;DHT22;46158;52.850;6.970;2023-03-11T05:22:32;12.60;67.80
60313;DHT22;46158;52.850;6.970;2023-03-11T05:24:58;12.70;67.80
60313;DHT22;46158;52.850;6.970;2023-03-11T05:27:23;12.70;67.80
60313;DHT22;46158;52.850;6.970;2023-03-11T05:29:49;12.70;67.70
60313;DHT22;46158;52.850;6.970;2023-03-11T05:32:14;12.70;67.70
60313;DHT22;46158;52.850;6.970;2023-03-11T05:34:40;12.70;67.70
60313;DHT22;46158;52.850;6.970;2023-03-11T05:37:06;12.80;67.70
60313;DHT22;46158;52.850;6.970;2023-03-11T05:39:32;12.70;67.70
60313;DHT22;46158;52.850;6.970;2023-03-11T05:41:57;12.70;67.80
60313;DHT22;46158;52.850;6.970;2023-03-11T05:44:23;12.60;67.90
60313;DHT22;46158;52.850;6.970;2023-03-11T05:46:49;12.60;67.90
60313;DHT22;46158;52.850;6.970;2023-03-11T05:49:14;12.70;67.80
60313;DHT22;46158;52.850;6.970;2023-03-11T05:51:40;12.60;67.80
60313;DHT22;46158;52.850;6.970;2023-03-11T05:54:05;12.70;68.00
60313;DHT22;46158;52.850;6.970;2023-03-11T05:56:42;12.60;68.00
60313;DHT22;46158;52.850;6.970;2023-03-11T05:59:08;12.60;68.10
60313;DHT22;46158;52.850;6.970;2023-03-11T06:01:34;12.60;68.20
60313;DHT22;46158;52.850;6.970;2023-03-11T06:04:00;12.60;68.30
60313;DHT22;46158;52.850;6.970;2023-03-11T06:06:25;12.60;68.40
60313;DHT22;46158;52.850;6.970;2023-03-11T06:08:51;12.60;68.60
60313;DHT22;46158;52.850;6.970;2023-03-11T06:11:17;12.60;68.80
60313;DHT22;46158;52.850;6.970;2023-03-11T06:13:42;12.60;68.80
60313;DHT22;46158;52.850;6.970;2023-03-11T06:16:08;12.60;68.90
60313;DHT22;46158;52.850;6.970;2023-03-11T06:18:34;12.60;69.10
60313;DHT22;46158;52.850;6.970;2023-03-11T06:21:00;12.60;69.10
60313;DHT22;46158;52.850;6.970;2023-03-11T06:23:26;12.60;69.10
60313;DHT22;46158;52.850;6.970;2023-03-11T06:28:20;12.60;69.30
60313;DHT22;46158;52.850;6.970;2023-03-11T06:30:46;12.60;69.40
60313;DHT22;46158;52.850;6.970;2023-03-11T06:33:12;12.60;69.50
60313;DHT22;46158;52.850;6.970;2023-03-11T06:35:39;12.60;69.50
60313;DHT22;46158;52.850;6.970;2023-03-11T06:38:05;12.60;69.60
60313;DHT22;46158;52.850;6.970;2023-03-11T06:40:30;12.70;70.40
60313;DHT22;46158;52.850;6.970;2023-03-11T06:42:56;12.60;69.70
60313;DHT22;46158;52.850;6.970;2023-03-11T06:45:21;12.70;69.90
60313;DHT22;46158;52.850;6.970;2023-03-11T06:47:47;12.70;70.00
60313;DHT22;46158;52.850;6.970;2023-03-11T06:50:12;12.70;70.10
60313;DHT22;46158;52.850;6.970;2023-03-11T06:52:38;12.70;70.20
60313;DHT22;46158;52.850;6.970;2023-03-11T06:55:04;12.70;70.20
60313;DHT22;46158;52.850;6.970;2023-03-11T06:57:29;12.80;70.40
60313;DHT22;46158;52.850;6.970;2023-03-11T06:59:55;12.80;70.40
60313;DHT22;46158;52.850;6.970;2023-03-11T07:02:21;12.80;70.50
60313;DHT22;46158;52.850;6.970;2023-03-11T07:04:49;12.80;70.50
60313;DHT22;46158;52.850;6.970;2023-03-11T07:07:15;12.80;70.60
60313;DHT22;46158;52.850;6.970;2023-03-11T07:09:41;12.80;70.60
60313;DHT22;46158;52.850;6.970;2023-03-11T07:12:07;12.80;70.60
60313;DHT22;46158;52.850;6.970;2023-03-11T07:14:32;12.80;70.60
60313;DHT22;46158;52.850;6.970;2023-03-11T07:16:58;12.80;70.60
60313;DHT22;46158;52.850;6.970;2023-03-11T07:19:24;12.90;70.80
60313;DHT22;46158;52.850;6.970;2023-03-11T07:21:49;12.90;70.70
60313;DHT22;46158;52.850;6.970;2023-03-11T07:24:15;13.00;70.80
60313;DHT22;46158;52.850;6.970;2023-03-11T07:26:41;13.10;70.70
60313;DHT22;46158;52.850;6.970;2023-03-11T07:29:06;13.10;70.30
60313;DHT22;46158;52.850;6.970;2023-03-11T07:31:33;13.10;70.90
60313;DHT22;46158;52.850;6.970;2023-03-11T07:34:00;13.20;70.30
60313;DHT22;46158;52.850;6.970;2023-03-11T07:36:26;13.20;70.20
60313;DHT22;46158;52.850;6.970;2023-03-11T07:38:56;13.20;70.20
60313;DHT22;46158;52.850;6.970;2023-03-11T07:41:28;13.20;70.20
60313;DHT22;46158;52.850;6.970;2023-03-11T07:43:54;13.20;70.30
60313;DHT22;46158;52.850;6.970;2023-03-11T07:46:20;13.20;70.20
60313;DHT22;46158;52.850;6.970;2023-03-11T07:48:47;13.20;70.20
60313;DHT22;46158;52.850;6.970;2023-03-11T07:51:17;13.20;70.20
60313;DHT22;46158;52.850;6.970;2023-03-11T07:53:44;13.20;70.20
60313;DHT22;46158;52.850;6.970;2023-03-11T07:56:10;13.20;70.30
60313;DHT22;46158;52.850;6.970;2023-03-11T07:58:36;13.20;70.40
60313;DHT22;46158;52.850;6.970;2023-03-11T08:01:03;13.20;70.40
60313;DHT22;46158;52.850;6.970;2023-03-11T08:03:29;13.20;70.40
60313;DHT22;46158;52.850;6.970;2023-03-11T08:05:54;13.20;70.40
60313;DHT22;46158;52.850;6.970;2023-03-11T08:08:20;13.20;70.40
60313;DHT22;46158;52.850;6.970;2023-03-11T08:10:45;13.30;70.50
60313;DHT22;46158;52.850;6.970;2023-03-11T08:13:11;13.20;70.40
60313;DHT22;46158;52.850;6.970;2023-03-11T08:15:36;13.30;70.60
60313;DHT22;46158;52.850;6.970;2023-03-11T08:18:02;13.30;70.60
60313;DHT22;46158;52.850;6.970;2023-03-11T08:20:28;13.30;70.60
60313;DHT22;46158;52.850;6.970;2023-03-11T08:22:54;13.30;70.60
60313;DHT22;46158;52.850;6.970;2023-03-11T08:25:19;13.30;70.60
60313;DHT22;46158;52.850;6.970;2023-03-11T08:27:45;13.30;70.60
60313;DHT22;46158;52.850;6.970;2023-03-11T08:30:10;13.30;70.50
60313;DHT22;46158;52.850;6.970;2023-03-11T08:32:36;13.30;70.50
60313;DHT22;46158;52.850;6.970;2023-03-11T08:35:02;13.30;70.50
60313;DHT22;46158;52.850;6.970;2023-03-11T08:37:27;13.30;70.50
60313;DHT22;46158;52.850;6.970;2023-03-11T08:39:53;13.30;70.50
60313;DHT22;46158;52.850;6.970;2023-03-11T08:42:18;13.30;70.50
60313;DHT22;46158;52.850;6.970;2023-03-11T08:44:45;13.40;70.60
60313;DHT22;46158;52.850;6.970;2023-03-11T08:47:10;13.40;70.60
60313;DHT22;46158;52.850;6.970;2023-03-11T08:49:37;13.40;70.70
60313;DHT22;46158;52.850;6.970;2023-03-11T08:52:03;13.40;70.60
60313;DHT22;46158;52.850;6.970;2023-03-11T08:54:28;13.40;70.50
60313;DHT22;46158;52.850;6.970;2023-03-11T08:56:54;13.40;70.50
60313;DHT22;46158;52.850;6.970;2023-03-11T08:59:20;13.40;70.60
60313;DHT22;46158;52.850;6.970;2023-03-11T09:01:46;13.40;70.50
60313;DHT22;46158;52.850;6.970;2023-03-11T09:04:11;13.40;71.20
60313;DHT22;46158;52.850;6.970;2023-03-11T09:06:41;13.40;70.60
60313;DHT22;46158;52.850;6.970;2023-03-11T09:09:06;13.40;70.50
60313;DHT22;46158;52.850;6.970;2023-03-11T09:11:32;13.40;70.50
60313;DHT22;46158;52.850;6.970;2023-03-11T09:14:01;13.40;70.40
60313;DHT22;46158;52.850;6.970;2023-03-11T09:16:27;13.40;70.50
60313;DHT22;46158;52.850;6.970;2023-03-11T09:18:52;13.40;70.40
60313;DHT22;46158;52.850;6.970;2023-03-11T09:21:18;13.40;70.40
60313;DHT22;46158;52.850;6.970;2023-03-11T09:23:44;13.40;70.40
60313;DHT22;46158;52.850;6.970;2023-03-11T09:26:09;13.40;70.40
60313;DHT22;46158;52.850;6.970;2023-03-11T09:28:35;13.40;70.50
60313;DHT22;46158;52.850;6.970;2023-03-11T09:31:00;13.40;70.60
60313;DHT22;46158;52.850;6.970;2023-03-11T09:33:26;13.40;70.70
60313;DHT22;46158;52.850;6.970;2023-03-11T09:35:52;13.40;70.70
60313;DHT22;46158;52.850;6.970;2023-03-11T09:38:17;13.40;70.80
60313;DHT22;46158;52.850;6.970;2023-03-11T09:45:45;13.40;71.00
60313;DHT22;46158;52.850;6.970;2023-03-11T09:58:12;13.40;70.70
60313;DHT22;46158;52.850;6.970;2023-03-11T10:00:40;13.40;70.80
60313;DHT22;46158;52.850;6.970;2023-03-11T10:03:06;13.40;70.70
60313;DHT22;46158;52.850;6.970;2023-03-11T10:05:36;13.40;70.70
60313;DHT22;46158;52.850;6.970;2023-03-11T10:08:04;13.40;70.70
60313;DHT22;46158;52.850;6.970;2023-03-11T10:10:38;13.40;70.80
60313;DHT22;46158;52.850;6.970;2023-03-11T10:13:14;13.40;70.70
60313;DHT22;46158;52.850;6.970;2023-03-11T10:25:59;13.40;71.00
60313;DHT22;46158;52.850;6.970;2023-03-11T10:28:30;13.40;71.20
60313;DHT22;46158;52.850;6.970;2023-03-11T10:31:05;13.40;71.20
60313;DHT22;46158;52.850;6.970;2023-03-11T10:33:53;13.40;71.30
60313;DHT22;46158;52.850;6.970;2023-03-11T10:36:21;13.40;71.30
60313;DHT22;46158;52.850;6.970;2023-03-11T10:38:49;13.40;71.40
60313;DHT22;46158;52.850;6.970;2023-03-11T10:44:05;13.30;71.30
60313;DHT22;46158;52.850;6.970;2023-03-11T10:46:31;13.40;71.40
60313;DHT22;46158;52.850;6.970;2023-03-11T10:48:57;13.30;71.30
60313;DHT22;46158;52.850;6.970;2023-03-11T10:51:23;13.30;71.20
60313;DHT22;46158;52.850;6.970;2023-03-11T10:53:54;13.30;71.20
60313;DHT22;46158;52.850;6.970;2023-03-11T10:56:28;13.30;71.20
60313;DHT22;46158;52.850;6.970;2023-03-11T10:58:54;13.30;71.30
60313;DHT22;46158;52.850;6.970;2023-03-11T11:01:20;13.30;71.40
60313;DHT22;46158;52.850;6.970;2023-03-11T11:03:47;13.30;71.30
60313;DHT22;46158;52.850;6.970;2023-03-11T11:06:30;13.30;71.20
60313;DHT22;46158;52.850;6.970;2023-03-11T11:09:03;13.30;71.20
60313;DHT22;46158;52.850;6.970;2023-03-11T11:31:02;14.20;67.40
60313;DHT22;46158;52.850;6.970;2023-03-11T11:33:31;14.40;67.60
60313;DHT22;46158;52.850;6.970;2023-03-11T11:36:03;14.20;68.40
60313;DHT22;46158;52.850;6.970;2023-03-11T11:38:30;14.00;68.80
60313;DHT22;46158;52.850;6.970;2023-03-11T11:41:00;14.00;69.20
60313;DHT22;46158;52.850;6.970;2023-03-11T11:43:59;13.90;69.40
60313;DHT22;46158;52.850;6.970;2023-03-11T11:46:54;13.90;69.60
60313;DHT22;46158;52.850;6.970;2023-03-11T11:49:30;13.80;69.70
60313;DHT22;46158;52.850;6.970;2023-03-11T11:52:14;13.80;69.70
60313;DHT22;46158;52.850;6.970;2023-03-11T11:57:18;13.70;69.80
60313;DHT22;46158;52.850;6.970;2023-03-11T11:59:45;13.70;69.60
60313;DHT22;46158;52.850;6.970;2023-03-11T12:03:05;13.60;69.50
60313;DHT22;46158;52.850;6.970;2023-03-11T12:05:28;13.60;69.50
60313;DHT22;46158;52.850;6.970;2023-03-11T12:08:30;13.60;69.70
60313;DHT22;46158;52.850;6.970;2023-03-11T12:11:10;13.60;69.30
60313;DHT22;46158;52.850;6.970;2023-03-11T12:14:07;13.50;69.40
60313;DHT22;46158;52.850;6.970;2023-03-11T12:16:41;13.50;69.60
60313;DHT22;46158;52.850;6.970;2023-03-11T12:21:58;13.50;69.80
60313;DHT22;46158;52.850;6.970;2023-03-11T12:27:47;13.50;69.80
60313;DHT22;46158;52.850;6.970;2023-03-11T12:30:22;13.40;69.80
60313;DHT22;46158;52.850;6.970;2023-03-11T12:32:53;13.40;69.80
60313;DHT22;46158;52.850;6.970;2023-03-11T12:35:23;13.40;69.70
60313;DHT22;46158;52.850;6.970;2023-03-11T12:38:15;13.40;69.70
60313;DHT22;46158;52.850;6.970;2023-03-11T12:40:45;13.40;69.70
60313;DHT22;46158;52.850;6.970;2023-03-11T12:45:56;13.40;69.70
60313;DHT22;46158;52.850;6.970;2023-03-11T12:49:05;13.40;69.70
60313;DHT22;46158;52.850;6.970;2023-03-11T12:51:36;13.40;69.70
60313;DHT22;46158;52.850;6.970;2023-03-11T12:56:55;13.40;69.70
60313;DHT22;46158;52.850;6.970;2023-03-11T13:02:59;13.40;69.70
60313;DHT22;46158;52.850;6.970;2023-03-11T13:08:33;13.40;70.00
60313;DHT22;46158;52.850;6.970;2023-03-11T13:14:30;13.40;70.10
60313;DHT22;46158;52.850;6.970;2023-03-11T13:17:23;13.40;70.20
60313;DHT22;46158;52.850;6.970;2023-03-11T13:19:55;13.40;70.20
60313;DHT22;46158;52.850;6.970;2023-03-11T13:25:28;13.40;70.10
60313;DHT22;46158;52.850;6.970;2023-03-11T13:28:05;13.40;70.10
60313;DHT22;46158;52.850;6.970;2023-03-11T13:30:41;13.40;70.20
60313;DHT22;46158;52.850;6.970;2023-03-11T13:35:59;13.40;70.00
60313;DHT22;46158;52.850;6.970;2023-03-11T13:41:16;13.40;70.00
60313;DHT22;46158;52.850;6.970;2023-03-11T13:43:45;13.40;70.00
60313;DHT22;46158;52.850;6.970;2023-03-11T13:46:36;13.40;70.10
60313;DHT22;46158;52.850;6.970;2023-03-11T13:51:52;13.40;70.10
60313;DHT22;46158;52.850;6.970;2023-03-11T13:54:42;13.40;70.20
60313;DHT22;46158;52.850;6.970;2023-03-11T13:57:34;13.40;70.10
60313;DHT22;46158;52.850;6.970;2023-03-11T14:00:14;13.40;70.80
60313;DHT22;46158;52.850;6.970;2023-03-11T14:03:02;13.40;70.20
60313;DHT22;46158;52.850;6.970;2023-03-11T14:05:34;13.40;70.80
60313;DHT22;46158;52.850;6.970;2023-03-11T14:10:52;13.40;70.10
60313;DHT22;46158;52.850;6.970;2023-03-11T14:13:18;13.40;70.10
60313;DHT22;46158;52.850;6.970;2023-03-11T14:16:03;13.40;70.10
60313;DHT22;46158;52.850;6.970;2023-03-11T14:18:33;13.40;70.00
60313;DHT22;46158;52.850;6.970;2023-03-11T14:21:01;13.40;70.00
60313;DHT22;46158;52.850;6.970;2023-03-11T14:23:39;13.40;70.00
60313;DHT22;46158;52.850;6.970;2023-03-11T14:28:51;13.40;69.90
60313;DHT22;46158;52.850;6.970;2023-03-11T14:31:38;13.40;69.80
60313;DHT22;46158;52.850;6.970;2023-03-11T14:36:43;13.40;69.70
60313;DHT22;46158;52.850;6.970;2023-03-11T14:39:26;13.40;69.70
60313;DHT22;46158;52.850;6.970;2023-03-11T14:42:01;13.40;69.70
60313;DHT22;46158;52.850;6.970;2023-03-11T14:44:30;13.40;69.70
60313;DHT22;46158;52.850;6.970;2023-03-11T14:47:16;13.40;69.70
60313;DHT22;46158;52.850;6.970;2023-03-11T14:49:43;13.40;69.60
60313;DHT22;46158;52.850;6.970;2023-03-11T14:52:19;13.40;69.70
60313;DHT22;46158;52.850;6.970;2023-03-11T14:54:46;13.40;69.70
60313;DHT22;46158;52.850;6.970;2023-03-11T14:57:39;13.40;69.70
60313;DHT22;46158;52.850;6.970;2023-03-11T15:00:18;13.50;69.60
60313;DHT22;46158;52.850;6.970;2023-03-11T15:05:32;13.40;69.50
60313;DHT22;46158;52.850;6.970;2023-03-11T15:08:01;13.40;69.60
60313;DHT22;46158;52.850;6.970;2023-03-11T15:10:28;13.40;69.60
60313;DHT22;46158;52.850;6.970;2023-03-11T15:13:06;13.40;69.60
60313;DHT22;46158;52.850;6.970;2023-03-11T15:15:32;13.40;69.60
60313;DHT22;46158;52.850;6.970;2023-03-11T15:17:59;13.40;70.40
60313;DHT22;46158;52.850;6.970;2023-03-11T15:20:31;13.40;69.70
60313;DHT22;46158;52.850;6.970;2023-03-11T15:23:03;13.40;69.70
60313;DHT22;46158;52.850;6.970;2023-03-11T15:25:35;13.40;69.90
60313;DHT22;46158;52.850;6.970;2023-03-11T15:28:27;13.40;70.20
60313;DHT22;46158;52.850;6.970;2023-03-11T15:31:13;13.40;69.90
60313;DHT22;46158;52.850;6.970;2023-03-11T15:33:39;13.40;69.90
60313;DHT22;46158;52.850;6.970;2023-03-11T15:36:24;13.40;70.00
60313;DHT22;46158;52.850;6.970;2023-03-11T15:41:56;13.40;69.80
60313;DHT22;46158;52.850;6.970;2023-03-11T15:46:56;13.40;69.80
60313;DHT22;46158;52.850;6.970;2023-03-11T15:49:25;13.40;69.80
60313;DHT22;46158;52.850;6.970;2023-03-11T15:51:51;13.40;69.70
60313;DHT22;46158;52.850;6.970;2023-03-11T15:54:16;13.40;69.70
60313;DHT22;46158;52.850;6.970;2023-03-11T15:56:42;13.40;69.80
60313;DHT22;46158;52.850;6.970;2023-03-11T15:59:14;13.40;69.70
60313;DHT22;46158;52.850;6.970;2023-03-11T16:01:40;13.40;69.70
60313;DHT22;46158;52.850;6.970;2023-03-11T16:04:14;13.40;69.70
60313;DHT22;46158;52.850;6.970;2023-03-11T16:06:41;13.40;69.70
60313;DHT22;46158;52.850;6.970;2023-03-11T16:09:07;13.40;69.70
60313;DHT22;46158;52.850;6.970;2023-03-11T16:11:33;13.40;69.70
60313;DHT22;46158;52.850;6.970;2023-03-11T16:13:59;13.40;69.70
60313;DHT22;46158;52.850;6.970;2023-03-11T16:16:25;13.40;69.70
60313;DHT22;46158;52.850;6.970;2023-03-11T16:18:50;13.40;69.70
60313;DHT22;46158;52.850;6.970;2023-03-11T16:21:18;13.40;69.70
60313;DHT22;46158;52.850;6.970;2023-03-11T16:23:45;13.40;69.70
60313;DHT22;46158;52.850;6.970;2023-03-11T16:26:12;13.40;69.70
60313;DHT22;46158;52.850;6.970;2023-03-11T16:28:38;13.40;69.70
60313;DHT22;46158;52.850;6.970;2023-03-11T16:31:04;13.40;69.60
60313;DHT22;46158;52.850;6.970;2023-03-11T16:33:30;13.40;69.60
60313;DHT22;46158;52.850;6.970;2023-03-11T16:35:57;13.40;69.60
60313;DHT22;46158;52.850;6.970;2023-03-11T16:38:22;13.40;69.60
60313;DHT22;46158;52.850;6.970;2023-03-11T16:40:59;13.30;69.50
60313;DHT22;46158;52.850;6.970;2023-03-11T16:43:27;13.40;69.40
60313;DHT22;46158;52.850;6.970;2023-03-11T16:45:53;13.40;69.50
60313;DHT22;46158;52.850;6.970;2023-03-11T16:48:20;13.30;69.50
60313;DHT22;46158;52.850;6.970;2023-03-11T16:50:46;13.30;69.70
60313;DHT22;46158;52.850;6.970;2023-03-11T16:53:12;13.30;69.70
60313;DHT22;46158;52.850;6.970;2023-03-11T16:55:41;13.30;69.70
60313;DHT22;46158;52.850;6.970;2023-03-11T16:58:07;13.30;69.80
60313;DHT22;46158;52.850;6.970;2023-03-11T17:00:34;13.30;69.90
60313;DHT22;46158;52.850;6.970;2023-03-11T17:03:00;13.30;70.00
60313;DHT22;46158;52.850;6.970;2023-03-11T17:05:28;13.30;70.00
60313;DHT22;46158;52.850;6.970;2023-03-11T17:07:55;13.30;70.10
60313;DHT22;46158;52.850;6.970;2023-03-11T17:10:26;13.30;70.20
60313;DHT22;46158;52.850;6.970;2023-03-11T17:12:53;13.30;70.30
60313;DHT22;46158;52.850;6.970;2023-03-11T17:15:19;13.30;70.40
60313;DHT22;46158;52.850;6.970;2023-03-11T17:17:45;13.30;70.60
60313;DHT22;46158;52.850;6.970;2023-03-11T17:20:11;13.30;70.70
60313;DHT22;46158;52.850;6.970;2023-03-11T17:22:37;13.30;70.90